LEGE/GRO METAR and TAF weather

Enter ICAO airport designator
Station Type Date Time Source
LEGE METAR 2021/09/23 23:30 UTC NOAA

LEGE 232330Z VRB02KT CAVOK 16/15 Q1019


Station Type Date Time Source
LEGE Decoded METAR 2021/09/23 23:30 UTC NOAA

Gerona / Costa Brava, Spain (LEGE) 41-54N 002-46E 129M
Sep 23, 2021 - 07:30 PM EDT / 2021.09.23 2330 UTC
Wind: Variable at 2 MPH (2 KT):0
Visibility: greater than 7 mile(s):0
Temperature: 60 F (16 C)
Dew Point: 59 F (15 C)
Relative Humidity: 93%
Pressure (altimeter): 30.09 in. Hg (1019 hPa)
ob: LEGE 232330Z VRB02KT CAVOK 16/15 Q1019
cycle: 23

Station Type Date Time Source
LEGE TAF 2021/09/23 18:27 UTC NOAA

TAF LEGE 231700Z 2318/2418 04008KT 9999 FEW045 TX27/2413Z TN16/2406Z
BECMG 2318/2321 34006KT
BECMG 2407/2410 05008KT

Example: see airport list